Aviation Digital Data Service (ADDS)

Output produced by METARs form (1302 UTC 17 January 2017)
found at http://aviationweather.gov/adds/metars/
 
KAND 171139Z 1712/1812 VRB02KT 3SM BR OVC003 
     TEMPO 1712/1715 1SM BR 
     FM171600 21006KT P6SM OVC003 
     FM171800 22008KT P6SM OVC010 
     FM172000 22008KT P6SM BKN020